sensor_id;sensor_type;location;lat;lon;timestamp;temperature;humidity
3794;DHT22;1912;51.358;12.282;2023-02-15T04:47:03;-1.20;1.00
3794;DHT22;1912;51.358;12.282;2023-02-15T04:49:29;-1.10;1.00
3794;DHT22;1912;51.358;12.282;2023-02-15T04:51:55;-1.10;1.00
3794;DHT22;1912;51.358;12.282;2023-02-15T04:54:20;-1.00;1.00
3794;DHT22;1912;51.358;12.282;2023-02-15T04:56:46;-0.90;1.00
3794;DHT22;1912;51.358;12.282;2023-02-15T04:59:12;-1.00;1.00
3794;DHT22;1912;51.358;12.282;2023-02-15T05:01:38;-1.00;1.00
3794;DHT22;1912;51.358;12.282;2023-02-15T05:04:04;-1.00;1.00
3794;DHT22;1912;51.358;12.282;2023-02-15T05:06:29;-1.20;1.00
3794;DHT22;1912;51.358;12.282;2023-02-15T05:08:55;-1.20;1.00
3794;DHT22;1912;51.358;12.282;2023-02-15T05:11:24;-1.30;1.00
3794;DHT22;1912;51.358;12.282;2023-02-15T05:13:50;-1.20;1.00
3794;DHT22;1912;51.358;12.282;2023-02-15T05:16:15;-1.20;1.00
3794;DHT22;1912;51.358;12.282;2023-02-15T05:18:41;-1.20;1.00
3794;DHT22;1912;51.358;12.282;2023-02-15T05:21:07;-1.20;1.00
3794;DHT22;1912;51.358;12.282;2023-02-15T05:23:32;-1.30;1.00
3794;DHT22;1912;51.358;12.282;2023-02-15T05:25:58;-1.30;1.00
3794;DHT22;1912;51.358;12.282;2023-02-15T05:28:42;-1.20;1.00
3794;DHT22;1912;51.358;12.282;2023-02-15T05:31:11;-1.40;1.00
3794;DHT22;1912;51.358;12.282;2023-02-15T05:33:39;-1.40;1.00
3794;DHT22;1912;51.358;12.282;2023-02-15T05:36:06;-1.40;1.00
3794;DHT22;1912;51.358;12.282;2023-02-15T05:38:32;-1.30;1.00
3794;DHT22;1912;51.358;12.282;2023-02-15T05:40:58;-1.40;1.00
3794;DHT22;1912;51.358;12.282;2023-02-15T05:43:25;-1.40;1.00
3794;DHT22;1912;51.358;12.282;2023-02-15T05:45:52;-1.40;1.00
3794;DHT22;1912;51.358;12.282;2023-02-15T05:48:21;-1.40;1.00
3794;DHT22;1912;51.358;12.282;2023-02-15T05:50:58;-1.50;1.00
3794;DHT22;1912;51.358;12.282;2023-02-15T05:53:25;-1.40;1.00
3794;DHT22;1912;51.358;12.282;2023-02-15T05:55:51;-1.50;1.00
3794;DHT22;1912;51.358;12.282;2023-02-15T05:58:17;-1.50;1.00
3794;DHT22;1912;51.358;12.282;2023-02-15T06:00:43;-1.50;1.00
3794;DHT22;1912;51.358;12.282;2023-02-15T06:03:08;-1.60;1.00
3794;DHT22;1912;51.358;12.282;2023-02-15T06:05:34;-1.60;1.00
3794;DHT22;1912;51.358;12.282;2023-02-15T06:08:00;-1.50;1.00
3794;DHT22;1912;51.358;12.282;2023-02-15T06:10:25;-1.50;1.00
3794;DHT22;1912;51.358;12.282;2023-02-15T06:12:51;-1.50;1.00
3794;DHT22;1912;51.358;12.282;2023-02-15T06:15:17;-1.60;1.00
3794;DHT22;1912;51.358;12.282;2023-02-15T06:17:42;-1.60;1.00
3794;DHT22;1912;51.358;12.282;2023-02-15T06:20:09;-1.60;1.00
3794;DHT22;1912;51.358;12.282;2023-02-15T06:22:34;-1.60;1.00
3794;DHT22;1912;51.358;12.282;2023-02-15T06:25:00;-1.70;1.00
3794;DHT22;1912;51.358;12.282;2023-02-15T06:27:26;-1.70;1.00
3794;DHT22;1912;51.358;12.282;2023-02-15T06:29:52;-1.60;1.00
3794;DHT22;1912;51.358;12.282;2023-02-15T06:32:17;-1.70;1.00
3794;DHT22;1912;51.358;12.282;2023-02-15T06:34:43;-1.70;1.00
3794;DHT22;1912;51.358;12.282;2023-02-15T06:37:09;-1.70;1.00
3794;DHT22;1912;51.358;12.282;2023-02-15T06:39:34;-1.70;1.00
3794;DHT22;1912;51.358;12.282;2023-02-15T06:42:00;-1.80;1.00
3794;DHT22;1912;51.358;12.282;2023-02-15T06:44:26;-1.80;1.00
3794;DHT22;1912;51.358;12.282;2023-02-15T06:46:51;-1.80;1.00
3794;DHT22;1912;51.358;12.282;2023-02-15T06:49:17;-1.80;1.00
3794;DHT22;1912;51.358;12.282;2023-02-15T06:51:43;-1.80;1.00
3794;DHT22;1912;51.358;12.282;2023-02-15T06:54:08;-1.70;1.00
3794;DHT22;1912;51.358;12.282;2023-02-15T06:56:34;-1.80;1.00
3794;DHT22;1912;51.358;12.282;2023-02-15T06:59:00;-1.80;1.00
3794;DHT22;1912;51.358;12.282;2023-02-15T07:01:26;-1.80;1.00
3794;DHT22;1912;51.358;12.282;2023-02-15T07:03:52;-1.70;1.00
3794;DHT22;1912;51.358;12.282;2023-02-15T07:06:17;-1.70;1.00
3794;DHT22;1912;51.358;12.282;2023-02-15T07:08:43;-1.70;1.00
3794;DHT22;1912;51.358;12.282;2023-02-15T07:11:09;-1.70;1.00
3794;DHT22;1912;51.358;12.282;2023-02-15T07:13:53;-1.70;1.00
3794;DHT22;1912;51.358;12.282;2023-02-15T07:16:19;-1.50;1.00
3794;DHT22;1912;51.358;12.282;2023-02-15T07:18:45;-1.50;1.00
3794;DHT22;1912;51.358;12.282;2023-02-15T07:21:11;-1.50;1.00
3794;DHT22;1912;51.358;12.282;2023-02-15T07:23:37;-1.40;1.00
3794;DHT22;1912;51.358;12.282;2023-02-15T07:26:04;-1.30;1.00
3794;DHT22;1912;51.358;12.282;2023-02-15T07:28:32;-1.30;1.00
3794;DHT22;1912;51.358;12.282;2023-02-15T07:31:01;-1.20;1.00
3794;DHT22;1912;51.358;12.282;2023-02-15T07:33:31;-1.20;1.00
3794;DHT22;1912;51.358;12.282;2023-02-15T07:35:59;-1.20;1.00
3794;DHT22;1912;51.358;12.282;2023-02-15T07:38:31;-1.10;1.00
3794;DHT22;1912;51.358;12.282;2023-02-15T07:41:02;-1.00;1.00
3794;DHT22;1912;51.358;12.282;2023-02-15T07:43:34;-0.90;1.00
3794;DHT22;1912;51.358;12.282;2023-02-15T07:46:03;-0.90;1.00
3794;DHT22;1912;51.358;12.282;2023-02-15T07:48:29;-0.80;1.00
3794;DHT22;1912;51.358;12.282;2023-02-15T07:50:59;-0.70;1.00
3794;DHT22;1912;51.358;12.282;2023-02-15T07:53:26;-0.60;1.00
3794;DHT22;1912;51.358;12.282;2023-02-15T07:55:52;-0.60;1.00
3794;DHT22;1912;51.358;12.282;2023-02-15T07:58:18;-0.50;1.00
3794;DHT22;1912;51.358;12.282;2023-02-15T08:00:44;-0.30;1.00
3794;DHT22;1912;51.358;12.282;2023-02-15T08:03:23;-0.20;1.00
3794;DHT22;1912;51.358;12.282;2023-02-15T08:05:55;0.10;1.00
3794;DHT22;1912;51.358;12.282;2023-02-15T08:08:23;0.40;1.00
3794;DHT22;1912;51.358;12.282;2023-02-15T08:10:59;0.60;1.00
3794;DHT22;1912;51.358;12.282;2023-02-15T08:13:48;1.00;1.00
3794;DHT22;1912;51.358;12.282;2023-02-15T08:18:49;1.60;1.00
3794;DHT22;1912;51.358;12.282;2023-02-15T08:21:16;1.90;1.00
3794;DHT22;1912;51.358;12.282;2023-02-15T08:23:41;2.10;1.00
3794;DHT22;1912;51.358;12.282;2023-02-15T08:26:07;2.40;1.00
3794;DHT22;1912;51.358;12.282;2023-02-15T08:28:33;2.60;1.00
3794;DHT22;1912;51.358;12.282;2023-02-15T08:31:10;2.70;1.00
3794;DHT22;1912;51.358;12.282;2023-02-15T08:33:38;3.00;1.00
3794;DHT22;1912;51.358;12.282;2023-02-15T08:36:09;3.20;1.00
3794;DHT22;1912;51.358;12.282;2023-02-15T08:38:39;3.40;1.00
3794;DHT22;1912;51.358;12.282;2023-02-15T08:41:20;3.70;1.00
3794;DHT22;1912;51.358;12.282;2023-02-15T08:43:53;3.90;1.00
3794;DHT22;1912;51.358;12.282;2023-02-15T08:46:20;3.90;1.00
3794;DHT22;1912;51.358;12.282;2023-02-15T08:48:47;4.20;1.00
3794;DHT22;1912;51.358;12.282;2023-02-15T08:51:18;4.40;1.00
3794;DHT22;1912;51.358;12.282;2023-02-15T08:53:47;4.60;1.00
3794;DHT22;1912;51.358;12.282;2023-02-15T08:56:15;5.00;1.00
3794;DHT22;1912;51.358;12.282;2023-02-15T08:58:41;5.40;1.00
3794;DHT22;1912;51.358;12.282;2023-02-15T09:01:15;5.60;1.00
3794;DHT22;1912;51.358;12.282;2023-02-15T09:03:44;5.70;1.00
3794;DHT22;1912;51.358;12.282;2023-02-15T09:06:11;5.70;1.00
3794;DHT22;1912;51.358;12.282;2023-02-15T09:08:37;5.60;1.00
3794;DHT22;1912;51.358;12.282;2023-02-15T09:11:07;5.60;1.00
3794;DHT22;1912;51.358;12.282;2023-02-15T09:13:34;5.80;1.00
3794;DHT22;1912;51.358;12.282;2023-02-15T09:16:07;5.80;1.00
3794;DHT22;1912;51.358;12.282;2023-02-15T09:18:36;6.00;1.00
3794;DHT22;1912;51.358;12.282;2023-02-15T09:21:07;5.90;1.00
3794;DHT22;1912;51.358;12.282;2023-02-15T09:23:39;5.80;1.00
3794;DHT22;1912;51.358;12.282;2023-02-15T09:26:11;6.00;1.00
3794;DHT22;1912;51.358;12.282;2023-02-15T09:28:39;6.10;1.00
3794;DHT22;1912;51.358;12.282;2023-02-15T09:31:16;6.40;1.00
3794;DHT22;1912;51.358;12.282;2023-02-15T09:33:45;6.50;1.00
3794;DHT22;1912;51.358;12.282;2023-02-15T09:36:21;6.60;1.00
3794;DHT22;1912;51.358;12.282;2023-02-15T09:38:55;6.70;1.00
3794;DHT22;1912;51.358;12.282;2023-02-15T09:56:55;7.20;1.00
3794;DHT22;1912;51.358;12.282;2023-02-15T09:59:47;7.50;1.00
3794;DHT22;1912;51.358;12.282;2023-02-15T10:09:19;7.10;1.00
3794;DHT22;1912;51.358;12.282;2023-02-15T10:12:05;7.00;1.00
3794;DHT22;1912;51.358;12.282;2023-02-15T10:15:04;6.90;1.00
3794;DHT22;1912;51.358;12.282;2023-02-15T10:24:57;6.90;1.00
3794;DHT22;1912;51.358;12.282;2023-02-15T10:27:23;6.90;1.00
3794;DHT22;1912;51.358;12.282;2023-02-15T10:32:27;6.60;1.00
3794;DHT22;1912;51.358;12.282;2023-02-15T10:35:06;6.50;1.00
3794;DHT22;1912;51.358;12.282;2023-02-15T10:41:28;6.20;1.00
3794;DHT22;1912;51.358;12.282;2023-02-15T10:44:33;6.60;1.00
3794;DHT22;1912;51.358;12.282;2023-02-15T10:47:21;6.70;1.00
3794;DHT22;1912;51.358;12.282;2023-02-15T10:50:02;6.60;1.00
3794;DHT22;1912;51.358;12.282;2023-02-15T10:55:52;6.80;1.00
3794;DHT22;1912;51.358;12.282;2023-02-15T11:01:46;7.00;1.00
3794;DHT22;1912;51.358;12.282;2023-02-15T11:07:38;6.90;1.00
3794;DHT22;1912;51.358;12.282;2023-02-15T11:10:32;7.00;1.00
3794;DHT22;1912;51.358;12.282;2023-02-15T11:13:18;7.10;1.00
3794;DHT22;1912;51.358;12.282;2023-02-15T11:18:31;7.10;1.00
3794;DHT22;1912;51.358;12.282;2023-02-15T11:21:05;7.10;1.00
3794;DHT22;1912;51.358;12.282;2023-02-15T11:23:37;7.20;1.00
3794;DHT22;1912;51.358;12.282;2023-02-15T11:26:18;7.30;1.00
3794;DHT22;1912;51.358;12.282;2023-02-15T11:29:21;7.30;1.00
3794;DHT22;1912;51.358;12.282;2023-02-15T11:31:55;7.30;1.00
3794;DHT22;1912;51.358;12.282;2023-02-15T11:34:35;7.40;1.00
3794;DHT22;1912;51.358;12.282;2023-02-15T11:37:11;7.50;1.00
3794;DHT22;1912;51.358;12.282;2023-02-15T11:39:42;7.30;1.00
3794;DHT22;1912;51.358;12.282;2023-02-15T11:42:14;7.30;1.00
3794;DHT22;1912;51.358;12.282;2023-02-15T11:44:54;7.50;1.00
3794;DHT22;1912;51.358;12.282;2023-02-15T11:47:43;7.60;1.00
3794;DHT22;1912;51.358;12.282;2023-02-15T11:50:17;7.60;1.00
3794;DHT22;1912;51.358;12.282;2023-02-15T11:52:51;7.80;1.00
3794;DHT22;1912;51.358;12.282;2023-02-15T11:55:25;7.90;1.00
3794;DHT22;1912;51.358;12.282;2023-02-15T12:00:41;8.10;1.00
3794;DHT22;1912;51.358;12.282;2023-02-15T12:06:29;8.40;1.00
3794;DHT22;1912;51.358;12.282;2023-02-15T12:09:07;8.50;1.00
3794;DHT22;1912;51.358;12.282;2023-02-15T12:11:39;8.60;1.00
3794;DHT22;1912;51.358;12.282;2023-02-15T12:14:08;8.60;1.00
3794;DHT22;1912;51.358;12.282;2023-02-15T12:19:27;8.70;1.00
3794;DHT22;1912;51.358;12.282;2023-02-15T12:21:56;8.70;1.00
3794;DHT22;1912;51.358;12.282;2023-02-15T12:24:36;8.90;1.00
3794;DHT22;1912;51.358;12.282;2023-02-15T12:27:05;8.90;1.00
3794;DHT22;1912;51.358;12.282;2023-02-15T12:29:41;9.00;1.00
3794;DHT22;1912;51.358;12.282;2023-02-15T12:34:51;9.00;1.00
3794;DHT22;1912;51.358;12.282;2023-02-15T12:37:28;9.20;1.00
3794;DHT22;1912;51.358;12.282;2023-02-15T12:39:59;9.30;1.00
3794;DHT22;1912;51.358;12.282;2023-02-15T12:42:27;9.20;1.00
3794;DHT22;1912;51.358;12.282;2023-02-15T12:45:19;9.30;1.00
3794;DHT22;1912;51.358;12.282;2023-02-15T12:50:45;9.50;1.00
3794;DHT22;1912;51.358;12.282;2023-02-15T12:53:31;9.70;1.00
3794;DHT22;1912;51.358;12.282;2023-02-15T12:56:04;9.90;1.00
3794;DHT22;1912;51.358;12.282;2023-02-15T12:58:34;10.00;1.00
3794;DHT22;1912;51.358;12.282;2023-02-15T13:01:16;9.90;1.00
3794;DHT22;1912;51.358;12.282;2023-02-15T13:04:03;10.00;1.00
3794;DHT22;1912;51.358;12.282;2023-02-15T13:06:33;10.10;1.00
3794;DHT22;1912;51.358;12.282;2023-02-15T13:09:47;10.10;1.00
3794;DHT22;1912;51.358;12.282;2023-02-15T13:12:26;10.10;1.00
3794;DHT22;1912;51.358;12.282;2023-02-15T13:14:54;10.20;1.00
3794;DHT22;1912;51.358;12.282;2023-02-15T13:17:32;10.30;1.00
3794;DHT22;1912;51.358;12.282;2023-02-15T13:20:16;10.60;1.00
3794;DHT22;1912;51.358;12.282;2023-02-15T13:22:45;10.70;1.00
3794;DHT22;1912;51.358;12.282;2023-02-15T13:25:19;10.70;1.00
3794;DHT22;1912;51.358;12.282;2023-02-15T13:27:48;10.80;1.00
3794;DHT22;1912;51.358;12.282;2023-02-15T13:30:20;10.90;1.00
3794;DHT22;1912;51.358;12.282;2023-02-15T13:32:52;11.10;1.00
3794;DHT22;1912;51.358;12.282;2023-02-15T13:35:21;11.30;1.00
3794;DHT22;1912;51.358;12.282;2023-02-15T13:38:17;11.40;1.00
3794;DHT22;1912;51.358;12.282;2023-02-15T13:40:55;11.40;1.00
3794;DHT22;1912;51.358;12.282;2023-02-15T13:43:47;11.70;1.00
3794;DHT22;1912;51.358;12.282;2023-02-15T13:46:38;11.80;1.00
3794;DHT22;1912;51.358;12.282;2023-02-15T13:52:24;12.00;1.00
3794;DHT22;1912;51.358;12.282;2023-02-15T13:57:59;12.10;1.00
3794;DHT22;1912;51.358;12.282;2023-02-15T14:00:48;12.40;1.00
3794;DHT22;1912;51.358;12.282;2023-02-15T14:03:57;12.60;1.00
3794;DHT22;1912;51.358;12.282;2023-02-15T14:06:54;12.80;1.00
3794;DHT22;1912;51.358;12.282;2023-02-15T14:09:47;12.80;1.00
3794;DHT22;1912;51.358;12.282;2023-02-15T14:13:02;12.90;1.00
3794;DHT22;1912;51.358;12.282;2023-02-15T14:16:03;13.10;1.00
3794;DHT22;1912;51.358;12.282;2023-02-15T14:18:36;13.10;1.00
3794;DHT22;1912;51.358;12.282;2023-02-15T14:21:20;13.30;1.00
3794;DHT22;1912;51.358;12.282;2023-02-15T14:24:14;13.30;1.00
3794;DHT22;1912;51.358;12.282;2023-02-15T14:27:01;13.10;1.00
3794;DHT22;1912;51.358;12.282;2023-02-15T14:30:12;13.00;1.00
3794;DHT22;1912;51.358;12.282;2023-02-15T14:32:54;12.90;1.00
3794;DHT22;1912;51.358;12.282;2023-02-15T14:35:27;12.90;1.00
3794;DHT22;1912;51.358;12.282;2023-02-15T14:38:11;12.80;1.00
3794;DHT22;1912;51.358;12.282;2023-02-15T14:46:59;12.50;1.00
3794;DHT22;1912;51.358;12.282;2023-02-15T14:49:35;12.30;1.00
3794;DHT22;1912;51.358;12.282;2023-02-15T14:52:04;12.20;1.00
3794;DHT22;1912;51.358;12.282;2023-02-15T14:59:41;11.90;1.00
3794;DHT22;1912;51.358;12.282;2023-02-15T15:02:24;11.90;1.00
3794;DHT22;1912;51.358;12.282;2023-02-15T15:05:17;11.80;1.00
3794;DHT22;1912;51.358;12.282;2023-02-15T15:07:56;11.60;1.00
3794;DHT22;1912;51.358;12.282;2023-02-15T15:12:56;11.40;1.00
3794;DHT22;1912;51.358;12.282;2023-02-15T15:18:00;11.20;1.00
3794;DHT22;1912;51.358;12.282;2023-02-15T15:20:50;11.20;1.00
3794;DHT22;1912;51.358;12.282;2023-02-15T15:25:51;11.00;1.00
3794;DHT22;1912;51.358;12.282;2023-02-15T15:28:52;10.90;1.00
3794;DHT22;1912;51.358;12.282;2023-02-15T15:43:31;10.50;1.00
3794;DHT22;1912;51.358;12.282;2023-02-15T15:46:42;10.40;1.00
3794;DHT22;1912;51.358;12.282;2023-02-15T15:49:21;10.30;1.00
3794;DHT22;1912;51.358;12.282;2023-02-15T15:51:49;10.30;1.00
3794;DHT22;1912;51.358;12.282;2023-02-15T15:54:20;10.20;1.00
3794;DHT22;1912;51.358;12.282;2023-02-15T15:56:51;10.10;1.00
3794;DHT22;1912;51.358;12.282;2023-02-15T15:59:28;10.10;1.00
3794;DHT22;1912;51.358;12.282;2023-02-15T16:01:55;9.90;1.00
3794;DHT22;1912;51.358;12.282;2023-02-15T16:04:30;9.80;1.00
3794;DHT22;1912;51.358;12.282;2023-02-15T16:07:13;9.70;1.00
3794;DHT22;1912;51.358;12.282;2023-02-15T16:10:00;9.50;1.00
3794;DHT22;1912;51.358;12.282;2023-02-15T16:12:30;9.50;1.00
3794;DHT22;1912;51.358;12.282;2023-02-15T16:14:58;9.40;1.00
3794;DHT22;1912;51.358;12.282;2023-02-15T16:17:29;9.20;1.00
3794;DHT22;1912;51.358;12.282;2023-02-15T16:20:14;9.10;1.00
3794;DHT22;1912;51.358;12.282;2023-02-15T16:22:45;8.90;1.00
3794;DHT22;1912;51.358;12.282;2023-02-15T16:28:15;8.60;1.00
3794;DHT22;1912;51.358;12.282;2023-02-15T16:30:43;8.40;1.00
3794;DHT22;1912;51.358;12.282;2023-02-15T16:33:15;8.30;1.00
3794;DHT22;1912;51.358;12.282;2023-02-15T16:35:56;8.20;1.00
3794;DHT22;1912;51.358;12.282;2023-02-15T16:41:07;8.10;1.00
3794;DHT22;1912;51.358;12.282;2023-02-15T16:43:36;8.00;1.00
3794;DHT22;1912;51.358;12.282;2023-02-15T16:46:05;7.90;1.00
3794;DHT22;1912;51.358;12.282;2023-02-15T16:48:33;7.80;1.00
3794;DHT22;1912;51.358;12.282;2023-02-15T16:51:01;7.80;1.00
3794;DHT22;1912;51.358;12.282;2023-02-15T16:53:27;7.70;1.00
3794;DHT22;1912;51.358;12.282;2023-02-15T16:55:59;7.60;1.00
3794;DHT22;1912;51.358;12.282;2023-02-15T16:58:40;7.60;1.00
3794;DHT22;1912;51.358;12.282;2023-02-15T17:01:10;7.50;1.00
3794;DHT22;1912;51.358;12.282;2023-02-15T17:03:37;7.50;1.00
3794;DHT22;1912;51.358;12.282;2023-02-15T17:06:23;7.50;1.00
3794;DHT22;1912;51.358;12.282;2023-02-15T17:08:51;7.30;1.00
3794;DHT22;1912;51.358;12.282;2023-02-15T17:11:22;7.30;1.00
3794;DHT22;1912;51.358;12.282;2023-02-15T17:19:30;7.10;1.00
3794;DHT22;1912;51.358;12.282;2023-02-15T17:22:01;7.10;1.00
3794;DHT22;1912;51.358;12.282;2023-02-15T17:24:38;7.00;1.00
3794;DHT22;1912;51.358;12.282;2023-02-15T17:27:18;7.00;1.00
3794;DHT22;1912;51.358;12.282;2023-02-15T17:29:51;6.90;1.00
3794;DHT22;1912;51.358;12.282;2023-02-15T17:32:23;6.80;1.00
3794;DHT22;1912;51.358;12.282;2023-02-15T17:37:32;6.50;1.00
3794;DHT22;1912;51.358;12.282;2023-02-15T17:42:49;6.30;1.00
3794;DHT22;1912;51.358;12.282;2023-02-15T17:45:15;6.30;1.00
3794;DHT22;1912;51.358;12.282;2023-02-15T17:47:42;6.30;1.00
3794;DHT22;1912;51.358;12.282;2023-02-15T17:50:21;6.30;1.00
3794;DHT22;1912;51.358;12.282;2023-02-15T17:52:49;6.30;1.00
3794;DHT22;1912;51.358;12.282;2023-02-15T17:55:19;6.40;1.00
3794;DHT22;1912;51.358;12.282;2023-02-15T17:58:12;6.30;1.00
3794;DHT22;1912;51.358;12.282;2023-02-15T18:00:44;6.30;1.00
3794;DHT22;1912;51.358;12.282;2023-02-15T18:03:44;6.10;1.00
3794;DHT22;1912;51.358;12.282;2023-02-15T18:06:35;6.00;1.00
3794;DHT22;1912;51.358;12.282;2023-02-15T18:09:21;6.00;1.00
3794;DHT22;1912;51.358;12.282;2023-02-15T18:12:30;5.90;1.00
3794;DHT22;1912;51.358;12.282;2023-02-15T18:15:00;5.90;1.00
3794;DHT22;1912;51.358;12.282;2023-02-15T18:17:36;5.90;1.00
3794;DHT22;1912;51.358;12.282;2023-02-15T18:22:43;5.80;1.00
3794;DHT22;1912;51.358;12.282;2023-02-15T18:25:14;5.70;1.00
3794;DHT22;1912;51.358;12.282;2023-02-15T18:27:41;5.70;1.00
3794;DHT22;1912;51.358;12.282;2023-02-15T18:30:12;5.60;1.00
3794;DHT22;1912;51.358;12.282;2023-02-15T18:32:38;5.60;1.00
3794;DHT22;1912;51.358;12.282;2023-02-15T18:35:05;5.60;1.00
3794;DHT22;1912;51.358;12.282;2023-02-15T18:37:32;5.60;1.00
3794;DHT22;1912;51.358;12.282;2023-02-15T18:39:59;5.50;1.00
3794;DHT22;1912;51.358;12.282;2023-02-15T18:42:27;5.50;1.00
3794;DHT22;1912;51.358;12.282;2023-02-15T18:47:39;5.30;1.00
3794;DHT22;1912;51.358;12.282;2023-02-15T18:50:06;5.30;1.00
3794;DHT22;1912;51.358;12.282;2023-02-15T18:52:36;5.30;1.00
3794;DHT22;1912;51.358;12.282;2023-02-15T18:55:05;5.30;1.00
3794;DHT22;1912;51.358;12.282;2023-02-15T18:57:40;5.30;1.00
3794;DHT22;1912;51.358;12.282;2023-02-15T19:00:17;5.30;1.00
3794;DHT22;1912;51.358;12.282;2023-02-15T19:02:44;5.30;1.00
3794;DHT22;1912;51.358;12.282;2023-02-15T19:05:10;5.30;1.00
3794;DHT22;1912;51.358;12.282;2023-02-15T19:07:37;5.30;1.00
3794;DHT22;1912;51.358;12.282;2023-02-15T19:10:05;5.20;1.00
3794;DHT22;1912;51.358;12.282;2023-02-15T19:12:32;5.20;1.00
3794;DHT22;1912;51.358;12.282;2023-02-15T19:14:58;5.20;1.00
3794;DHT22;1912;51.358;12.282;2023-02-15T19:17:27;5.20;1.00
3794;DHT22;1912;51.358;12.282;2023-02-15T19:19:53;5.20;1.00
3794;DHT22;1912;51.358;12.282;2023-02-15T19:22:28;5.20;1.00
3794;DHT22;1912;51.358;12.282;2023-02-15T19:25:01;5.20;1.00
3794;DHT22;1912;51.358;12.282;2023-02-15T19:27:33;5.10;1.00
3794;DHT22;1912;51.358;12.282;2023-02-15T19:30:01;5.10;1.00
3794;DHT22;1912;51.358;12.282;2023-02-15T19:32:31;5.10;1.00
3794;DHT22;1912;51.358;12.282;2023-02-15T19:34:57;5.00;1.00
3794;DHT22;1912;51.358;12.282;2023-02-15T19:37:34;5.00;1.00
3794;DHT22;1912;51.358;12.282;2023-02-15T19:40:03;5.00;1.00
3794;DHT22;1912;51.358;12.282;2023-02-15T19:42:30;5.00;1.00
3794;DHT22;1912;51.358;12.282;2023-02-15T19:44:56;4.90;1.00
3794;DHT22;1912;51.358;12.282;2023-02-15T19:47:22;4.90;1.00
3794;DHT22;1912;51.358;12.282;2023-02-15T19:49:49;4.90;1.00
3794;DHT22;1912;51.358;12.282;2023-02-15T19:52:20;4.80;1.00
3794;DHT22;1912;51.358;12.282;2023-02-15T19:54:55;4.80;1.00
3794;DHT22;1912;51.358;12.282;2023-02-15T19:57:20;4.80;1.00
3794;DHT22;1912;51.358;12.282;2023-02-15T19:59:47;4.70;1.00
3794;DHT22;1912;51.358;12.282;2023-02-15T20:02:15;4.70;1.00
3794;DHT22;1912;51.358;12.282;2023-02-15T20:04:44;4.70;1.00
3794;DHT22;1912;51.358;12.282;2023-02-15T20:07:25;4.60;1.00
3794;DHT22;1912;51.358;12.282;2023-02-15T20:09:51;4.50;1.00
3794;DHT22;1912;51.358;12.282;2023-02-15T20:12:25;4.50;1.00
3794;DHT22;1912;51.358;12.282;2023-02-15T20:14:51;4.50;1.00
3794;DHT22;1912;51.358;12.282;2023-02-15T20:17:17;4.50;1.00
3794;DHT22;1912;51.358;12.282;2023-02-15T20:19:43;4.50;1.00
3794;DHT22;1912;51.358;12.282;2023-02-15T20:22:22;4.40;1.00
3794;DHT22;1912;51.358;12.282;2023-02-15T20:24:50;4.40;1.00
3794;DHT22;1912;51.358;12.282;2023-02-15T20:27:17;4.40;1.00
3794;DHT22;1912;51.358;12.282;2023-02-15T20:29:46;4.40;1.00
3794;DHT22;1912;51.358;12.282;2023-02-15T20:32:12;4.30;1.00
3794;DHT22;1912;51.358;12.282;2023-02-15T20:34:37;4.40;1.00
3794;DHT22;1912;51.358;12.282;2023-02-15T20:37:04;4.40;1.00
3794;DHT22;1912;51.358;12.282;2023-02-15T20:39:30;4.40;1.00
3794;DHT22;1912;51.358;12.282;2023-02-15T20:41:57;4.40;1.00
3794;DHT22;1912;51.358;12.282;2023-02-15T20:44:27;4.30;1.00
3794;DHT22;1912;51.358;12.282;2023-02-15T20:46:57;4.30;1.00
3794;DHT22;1912;51.358;12.282;2023-02-15T20:49:24;4.30;1.00
3794;DHT22;1912;51.358;12.282;2023-02-15T20:51:52;4.20;1.00
